Time;durP1;ratioP1;P1;durP2;ratioP2;P2;SDS_P1;SDS_P2;PMS_P1;PMS_P2;Temp;Humidity;BMP_temperature;BMP_pressure;BME280_temperature;BME280_humidity;BME280_pressure;Samples;Min_cycle;Max_cycle;Signal;HPM_P1;HPM_P2
2022/05/16 15:33:47;;;;;;;4.72;1.12;;;;;;;20.12;32.04;99671.69;1810202;77;23118;-67
2022/05/16 15:36:13;;;;;;;1.20;1.10;;;;;;;20.10;31.15;99668.45;1812719;78;21017;-68
2022/05/16 15:38:43;;;;;;;6.97;1.17;;;;;;;20.05;30.96;99694.55;1799630;79;21486;-67
2022/05/16 15:41:09;;;;;;;5.17;1.10;;;;;;;19.98;31.26;99664.95;1800914;79;20936;-68
2022/05/16 15:43:36;;;;;;;11.25;3.70;;;;;;;19.98;31.20;99675.31;1782516;80;21112;-69
2022/05/16 15:46:02;;;;;;;1.32;1.00;;;;;;;19.84;31.29;99656.84;1782619;80;21501;-69
2022/05/16 15:48:29;;;;;;;4.15;1.00;;;;;;;19.62;31.65;99691.49;1754969;80;21011;-66
2022/05/16 15:50:56;;;;;;;2.35;1.00;;;;;;;19.50;31.84;99682.52;1808228;79;22175;-67
2022/05/16 15:53:22;;;;;;;3.75;1.20;;;;;;;19.50;31.88;99671.59;1813619;79;20885;-66
2022/05/16 15:55:48;;;;;;;1.10;1.00;;;;;;;19.49;31.52;99680.34;1813864;79;20979;-67
2022/05/16 15:58:15;;;;;;;3.47;1.20;;;;;;;19.41;31.25;99712.42;1811796;79;21017;-68
2022/05/16 16:00:44;;;;;;;1.55;1.20;;;;;;;19.20;31.41;99683.17;1782477;80;21083;-66
2022/05/16 16:08:57;;;;;;;1.07;0.90;;;;;;;19.27;30.48;99680.28;1803725;79;21069;-68
2022/05/16 16:11:24;;;;;;;1.20;0.90;;;;;;;19.37;29.99;99686.88;1814419;78;21026;-73
2022/05/16 16:13:51;;;;;;;4.15;1.00;;;;;;;19.38;29.77;99679.47;1812539;79;21043;-67
2022/05/16 16:16:19;;;;;;;2.65;0.90;;;;;;;19.12;29.66;99692.89;1798448;79;20925;-67
2022/05/16 16:18:48;;;;;;;2.58;1.30;;;;;;;19.03;29.73;99666.11;1813061;79;21023;-68
2022/05/16 16:21:19;;;;;;;1.15;0.90;;;;;;;19.00;29.58;99683.05;1814743;79;20909;-66
2022/05/16 16:23:47;;;;;;;1.95;1.67;;;;;;;19.10;29.44;99686.92;1812095;79;21066;-68
2022/05/16 16:26:14;;;;;;;2.85;0.80;;;;;;;19.08;28.94;99687.80;1788171;79;21095;-67
2022/05/16 16:28:42;;;;;;;1.85;1.10;;;;;;;18.97;28.58;99686.40;1782581;80;21548;-67
2022/05/16 16:31:19;;;;;;;1.10;1.05;;;;;;;19.06;28.65;99702.28;1782285;80;21034;-67
2022/05/16 16:33:45;;;;;;;3.67;2.05;;;;;;;19.03;28.33;99709.72;1782258;80;20939;-67
2022/05/16 16:36:12;;;;;;;2.92;1.47;;;;;;;18.89;27.93;99686.57;1782329;80;21086;-65
2022/05/16 16:38:39;;;;;;;6.65;2.95;;;;;;;18.79;27.66;99692.78;1783746;79;21056;-68
2022/05/16 16:41:06;;;;;;;2.52;2.25;;;;;;;18.70;27.46;99692.11;1782208;80;21154;-66
2022/05/16 16:43:43;;;;;;;6.58;2.65;;;;;;;18.75;27.32;99693.14;1742731;82;21052;-67
2022/05/16 16:46:13;;;;;;;5.47;2.33;;;;;;;18.65;27.57;99699.05;1742300;82;20925;-66
2022/05/16 16:48:41;;;;;;;5.33;2.25;;;;;;;18.72;27.53;99695.91;1750851;82;20952;-65
2022/05/16 16:59:54;;;;;;;3.87;2.72;;;;;;;18.73;27.69;99706.51;1742578;82;21498;-65
2022/05/16 17:02:26;;;;;;;7.62;3.70;;;;;;;18.81;27.59;99721.33;1742102;81;21546;-66
2022/05/16 17:04:55;;;;;;;10.25;3.42;;;;;;;18.78;27.29;99720.59;1742392;82;21064;-66
2022/05/16 17:07:21;;;;;;;11.38;4.10;;;;;;;18.65;27.60;99721.40;1741861;81;21135;-66
2022/05/16 17:09:50;;;;;;;8.05;2.77;;;;;;;18.60;27.74;99718.22;1742200;81;20932;-66
2022/05/16 17:12:17;;;;;;;6.95;4.25;;;;;;;18.56;27.93;99721.85;1772953;81;21064;-66
2022/05/16 17:14:44;;;;;;;6.62;3.05;;;;;;;18.52;27.75;99730.31;1772779;80;21001;-65
2022/05/16 17:17:11;;;;;;;4.83;2.65;;;;;;;18.42;27.72;99724.50;1773031;80;21040;-68
2022/05/16 17:19:39;;;;;;;10.28;3.60;;;;;;;18.08;27.84;99735.72;1749011;81;22066;-64
2022/05/16 17:22:06;;;;;;;4.20;2.92;;;;;;;17.95;28.01;99729.69;1773026;81;21096;-65
2022/05/16 17:24:33;;;;;;;11.55;3.65;;;;;;;17.84;28.03;99745.94;1772512;80;21029;-67
2022/05/16 17:26:59;;;;;;;6.83;2.70;;;;;;;17.60;28.23;99735.13;1773055;80;21557;-65
2022/05/16 17:29:26;;;;;;;5.42;2.80;;;;;;;17.46;28.51;99749.17;1773028;80;21000;-66
2022/05/16 17:31:53;;;;;;;5.10;2.47;;;;;;;17.35;28.66;99752.61;1773153;80;21510;-66
2022/05/16 17:34:20;;;;;;;3.80;2.62;;;;;;;17.19;28.71;99752.54;1751422;80;21002;-65
2022/05/16 17:36:47;;;;;;;5.80;2.50;;;;;;;17.04;29.06;99749.20;1750606;80;21086;-67
2022/05/16 17:39:13;;;;;;;3.50;2.12;;;;;;;16.88;29.28;99761.60;1739387;80;21070;-65
2022/05/16 17:41:41;;;;;;;3.87;2.05;;;;;;;16.63;29.65;99765.16;1720680;82;21010;-67
2022/05/16 17:44:10;;;;;;;4.33;2.33;;;;;;;16.42;29.94;99763.98;1720863;82;20959;-67
2022/05/16 17:46:37;;;;;;;3.92;2.42;;;;;;;16.31;30.18;99763.80;1706938;84;21574;-66
2022/05/16 17:49:04;;;;;;;3.83;2.17;;;;;;;16.15;30.48;99767.77;1681776;84;21149;-67
2022/05/16 17:51:37;;;;;;;3.62;2.02;;;;;;;16.06;30.69;99771.64;1730972;82;21012;-67
2022/05/16 17:54:11;;;;;;;5.78;2.08;;;;;;;15.94;30.90;99773.08;1750555;82;21029;-66
2022/05/16 17:56:38;;;;;;;1.52;1.25;;;;;;;15.85;31.10;99776.12;1750358;81;21146;-67
2022/05/16 17:59:05;;;;;;;2.17;1.57;;;;;;;15.80;31.26;99781.59;1750423;82;21617;-67
2022/05/16 18:01:33;;;;;;;9.20;1.80;;;;;;;15.67;31.51;99781.69;1731233;80;20992;-71
2022/05/16 18:04:00;;;;;;;4.20;1.77;;;;;;;15.58;31.76;99790.14;1734425;82;21035;-69
2022/05/16 18:06:27;;;;;;;3.17;1.70;;;;;;;15.43;32.05;99789.66;1723563;83;21102;-68
2022/05/16 18:08:53;;;;;;;2.58;1.30;;;;;;;15.33;32.21;99790.24;1723868;83;21532;-67
2022/05/16 18:14:06;;;;;;;7.75;1.20;;;;;;;15.24;32.51;99797.60;1710826;83;20995;-71
2022/05/16 18:16:34;;;;;;;4.25;1.20;;;;;;;15.18;32.67;99800.60;1708300;84;21616;-67
2022/05/16 18:19:01;;;;;;;4.62;0.93;;;;;;;15.10;32.83;99806.06;1707102;82;20971;-71
2022/05/16 18:21:28;;;;;;;1.30;1.17;;;;;;;15.04;32.96;99810.41;1722454;83;22017;-69
2022/05/16 18:23:56;;;;;;;2.67;1.20;;;;;;;14.98;33.08;99808.25;1676950;84;20964;-68
2022/05/16 18:26:23;;;;;;;1.20;1.10;;;;;;;14.95;33.26;99813.42;1707632;83;20940;-69
2022/05/16 18:28:51;;;;;;;3.72;1.17;;;;;;;14.90;33.40;99811.53;1723585;82;20919;-70
2022/05/16 18:31:17;;;;;;;1.27;1.17;;;;;;;14.83;33.49;99806.94;1722551;83;21663;-67
2022/05/16 18:33:44;;;;;;;2.92;1.45;;;;;;;14.78;33.60;99811.01;1737309;81;22188;-71
2022/05/16 18:36:11;;;;;;;1.67;1.27;;;;;;;14.71;33.74;99815.38;1742981;82;21092;-67
2022/05/16 18:38:39;;;;;;;1.82;1.32;;;;;;;14.65;33.88;99813.75;1733635;81;21952;-65
2022/05/16 18:41:07;;;;;;;2.87;1.30;;;;;;;14.61;34.03;99819.45;1690403;84;21033;-69
2022/05/16 18:51:45;;;;;;;2.27;1.70;;;;;;;14.32;34.68;99815.11;1750210;79;24194;-69
2022/05/16 18:54:12;;;;;;;3.58;1.77;;;;;;;14.26;34.81;99820.24;1731579;82;21055;-69
2022/05/16 18:56:40;;;;;;;3.42;1.60;;;;;;;14.20;34.93;99815.09;1738959;82;21601;-67
2022/05/16 18:59:07;;;;;;;3.72;1.80;;;;;;;14.13;35.09;99808.62;1697922;82;21143;-70
2022/05/16 19:01:40;;;;;;;3.20;2.15;;;;;;;14.06;35.29;99818.87;1691682;83;20946;-68
2022/05/16 19:04:07;;;;;;;2.35;1.72;;;;;;;14.00;35.42;99821.86;1717107;83;21029;-69
2022/05/16 19:06:34;;;;;;;2.70;1.98;;;;;;;13.92;35.59;99818.59;1708033;83;21469;-68
2022/05/16 19:09:01;;;;;;;8.03;2.50;;;;;;;13.87;35.73;99822.64;1692487;83;21015;-69
2022/05/16 19:11:37;;;;;;;3.77;2.83;;;;;;;13.83;35.79;99822.91;1715532;83;21346;-69
2022/05/16 19:14:07;;;;;;;4.03;2.87;;;;;;;13.80;35.88;99822.64;1684051;82;21034;-69
2022/05/16 19:16:35;;;;;;;3.22;2.83;;;;;;;13.76;35.99;99820.20;1692670;83;20987;-69
2022/05/16 19:19:03;;;;;;;6.03;3.58;;;;;;;13.73;36.14;99820.72;1720685;83;21500;-69
2022/05/16 19:21:36;;;;;;;4.85;3.20;;;;;;;13.69;36.26;99812.88;1732674;82;21530;-74
2022/05/16 19:24:03;;;;;;;4.83;3.42;;;;;;;13.66;36.39;99812.07;1696816;82;21259;-72
2022/05/16 19:26:29;;;;;;;3.17;2.85;;;;;;;13.61;36.52;99818.28;1700794;83;21034;-68
2022/05/16 19:32:00;;;;;;;5.80;3.20;;;;;;;13.54;37.01;99813.66;1708815;83;21736;-70
2022/05/16 19:34:30;;;;;;;6.03;2.92;;;;;;;13.52;37.12;99814.47;1719381;82;20978;-67
2022/05/16 19:36:57;;;;;;;6.28;2.55;;;;;;;13.49;37.16;99814.98;1734775;82;21297;-70
2022/05/16 19:39:24;;;;;;;6.85;3.35;;;;;;;13.47;37.16;99812.57;1721346;82;21514;-70
2022/05/16 19:41:51;;;;;;;5.37;3.37;;;;;;;13.43;37.35;99815.50;1739728;82;21596;-69
2022/05/16 19:44:19;;;;;;;5.83;3.95;;;;;;;13.39;37.41;99809.55;1742222;81;21032;-69
2022/05/16 19:46:45;;;;;;;5.12;4.00;;;;;;;13.36;37.49;99810.91;1756785;81;21041;-70
2022/05/16 19:49:11;;;;;;;7.12;3.85;;;;;;;13.33;37.63;99816.03;1773003;80;21510;-68
2022/05/16 19:51:38;;;;;;;5.83;4.08;;;;;;;13.33;37.83;99817.37;1772880;81;20957;-68
2022/05/16 19:54:07;;;;;;;8.78;4.22;;;;;;;13.31;37.87;99817.63;1756961;81;21022;-67
2022/05/16 19:56:35;;;;;;;5.45;3.95;;;;;;;13.29;37.94;99809.51;1772822;81;21000;-72
2022/05/16 19:59:03;;;;;;;14.20;3.47;;;;;;;13.29;37.96;99817.61;1773067;81;21562;-67
2022/05/16 20:01:30;;;;;;;4.47;3.12;;;;;;;13.27;38.02;99813.84;1769246;80;21096;-70
2022/05/16 20:03:56;;;;;;;11.38;2.90;;;;;;;13.26;38.21;99817.61;1759842;81;21024;-69
2022/05/16 20:06:22;;;;;;;14.65;3.58;;;;;;;13.26;38.26;99817.61;1742395;82;21076;-70
2022/05/16 20:08:54;;;;;;;5.53;3.45;;;;;;;13.25;38.30;99817.33;1744281;81;21077;-68
2022/05/16 20:11:19;;;;;;;5.50;2.87;;;;;;;13.24;38.45;99816.23;1742239;82;21068;-69
2022/05/16 20:13:45;;;;;;;4.17;3.27;;;;;;;13.22;38.54;99823.81;1746194;81;21227;-70
2022/05/16 20:16:13;;;;;;;6.80;3.60;;;;;;;13.20;38.51;99821.89;1764445;80;21004;-70
2022/05/16 20:18:40;;;;;;;2.98;2.67;;;;;;;13.14;38.64;99818.92;1761385;81;21092;-67
2022/05/16 20:21:07;;;;;;;4.92;3.00;;;;;;;13.07;38.79;99823.98;1762230;81;21068;-66
2022/05/16 20:26:18;;;;;;;7.75;3.00;;;;;;;12.95;39.13;99819.88;1742315;82;21238;-69
2022/05/16 20:28:44;;;;;;;7.80;2.62;;;;;;;12.88;39.42;99814.70;1744672;81;21545;-69
2022/05/16 20:31:11;;;;;;;5.15;3.10;;;;;;;12.81;39.70;99817.34;1742473;82;21041;-69
2022/05/16 20:33:38;;;;;;;5.58;4.00;;;;;;;12.77;39.88;99818.95;1762553;80;21011;-69
2022/05/16 20:36:05;;;;;;;4.40;2.98;;;;;;;12.71;40.28;99820.01;1750648;82;21037;-70
2022/05/16 20:38:32;;;;;;;6.70;2.83;;;;;;;12.65;40.55;99817.28;1761414;80;21713;-69
2022/05/16 20:41:01;;;;;;;4.55;2.95;;;;;;;12.63;40.80;99817.24;1754138;80;22263;-71
2022/05/16 20:43:28;;;;;;;6.10;2.60;;;;;;;12.61;40.87;99814.02;1734895;80;21448;-69
2022/05/16 20:45:55;;;;;;;2.45;2.25;;;;;;;12.61;40.98;99811.31;1744956;80;21150;-69
2022/05/16 20:48:22;;;;;;;5.35;2.20;;;;;;;12.61;41.01;99814.02;1766505;79;21121;-69
2022/05/16 20:50:48;;;;;;;4.33;2.30;;;;;;;12.59;41.14;99821.00;1749961;80;21073;-73
2022/05/16 20:53:17;;;;;;;3.25;2.00;;;;;;;12.58;41.27;99813.16;1767366;80;21481;-72
2022/05/16 20:55:44;;;;;;;4.58;2.08;;;;;;;12.55;41.46;99813.69;1765280;80;21022;-71
2022/05/16 20:58:11;;;;;;;1.72;1.55;;;;;;;12.54;41.79;99811.53;1741119;82;21038;-72
2022/05/16 21:00:43;;;;;;;3.65;1.85;;;;;;;12.54;41.93;99812.88;1743566;81;21068;-73
2022/05/16 21:03:10;;;;;;;1.70;1.60;;;;;;;12.53;41.94;99813.13;1738413;80;21159;-73
2022/05/16 21:05:37;;;;;;;5.67;3.17;;;;;;;12.52;41.87;99815.54;1743563;81;20991;-71
2022/05/16 21:08:04;;;;;;;3.55;2.40;;;;;;;12.49;42.25;99812.84;1743573;81;21496;-70
2022/05/16 21:10:32;;;;;;;3.55;2.27;;;;;;;12.50;42.45;99810.95;1740908;81;21052;-74
2022/05/16 21:13:02;;;;;;;3.70;1.82;;;;;;;12.49;42.61;99808.80;1742166;81;22053;-73
2022/05/16 21:15:29;;;;;;;2.40;1.67;;;;;;;12.52;42.74;99808.80;1749956;81;21155;-70
2022/05/16 21:17:55;;;;;;;4.83;2.08;;;;;;;12.51;42.91;99808.02;1760041;80;20998;-72
2022/05/16 21:20:22;;;;;;;2.02;1.70;;;;;;;12.52;43.09;99800.17;1749639;81;21039;-74
2022/05/16 21:22:49;;;;;;;13.93;2.17;;;;;;;12.52;43.25;99805.56;1756547;80;21469;-75
2022/05/16 21:25:15;;;;;;;4.55;1.62;;;;;;;12.52;43.38;99808.27;1741750;81;21028;-75
2022/05/16 21:27:43;;;;;;;3.90;1.65;;;;;;;12.53;43.69;99805.84;1760435;80;21116;-74
2022/05/16 21:30:14;;;;;;;2.50;1.67;;;;;;;12.53;43.96;99812.59;1753914;80;20964;-71
2022/05/16 21:32:42;;;;;;;3.52;1.60;;;;;;;12.54;44.08;99807.48;1732246;82;21578;-70
2022/05/16 21:35:09;;;;;;;4.30;1.30;;;;;;;12.55;43.98;99810.45;1724338;82;21008;-70
2022/05/16 21:37:38;;;;;;;6.00;1.75;;;;;;;12.56;44.28;99803.19;1749145;81;21039;-73
2022/05/16 21:40:06;;;;;;;2.20;1.90;;;;;;;12.58;44.56;99809.11;1740761;81;21221;-72
2022/05/16 21:42:32;;;;;;;5.33;2.25;;;;;;;12.59;44.83;99798.60;1734275;81;20936;-72
2022/05/16 21:47:45;;;;;;;3.00;1.85;;;;;;;12.60;45.28;99808.33;1735267;81;21633;-72
2022/05/16 21:50:11;;;;;;;2.10;1.52;;;;;;;12.60;45.45;99808.33;1741540;81;21326;-72
2022/05/16 21:52:39;;;;;;;3.10;1.70;;;;;;;12.61;45.73;99812.66;1764602;81;21975;-71
2022/05/16 21:55:08;;;;;;;2.47;1.60;;;;;;;12.60;45.72;99811.84;1739128;81;21000;-72
2022/05/16 21:57:36;;;;;;;3.70;1.32;;;;;;;12.60;45.96;99809.68;1741404;81;21318;-72
2022/05/16 22:00:06;;;;;;;2.20;1.40;;;;;;;12.59;45.99;99808.86;1741696;81;20993;-73
2022/05/16 22:02:34;;;;;;;2.67;1.50;;;;;;;12.62;46.05;99808.87;1740264;81;21095;-74
2022/05/16 22:05:01;;;;;;;5.60;1.40;;;;;;;12.62;46.01;99802.94;1740701;82;21088;-73
2022/05/16 22:07:28;;;;;;;6.80;1.42;;;;;;;12.64;45.72;99802.69;1737892;82;21051;-72
2022/05/16 22:09:54;;;;;;;4.67;1.27;;;;;;;12.65;45.55;99797.04;1765452;81;20922;-73
2022/05/16 22:12:21;;;;;;;1.82;1.17;;;;;;;12.67;45.28;99797.57;1744190;81;21079;-73
2022/05/16 22:14:49;;;;;;;2.20;1.60;;;;;;;12.68;45.16;99790.30;1743355;81;20995;-72
2022/05/16 22:17:15;;;;;;;1.90;1.40;;;;;;;12.67;45.01;99788.13;1734160;81;21221;-72
2022/05/16 22:19:42;;;;;;;8.60;1.82;;;;;;;12.68;44.22;99799.73;1735915;81;21001;-72
2022/05/16 22:22:10;;;;;;;3.05;1.70;;;;;;;12.67;43.88;99795.41;1736425;81;21082;-73
2022/05/16 22:24:37;;;;;;;4.65;1.90;;;;;;;12.65;43.79;99797.57;1749272;81;21016;-73
2022/05/16 22:27:05;;;;;;;7.28;2.70;;;;;;;12.62;43.56;99795.37;1745321;81;21011;-72
2022/05/16 22:29:31;;;;;;;5.20;3.05;;;;;;;12.59;43.39;99795.91;1761581;81;21183;-73
2022/05/16 22:31:58;;;;;;;8.83;4.33;;;;;;;12.55;43.13;99796.97;1753557;80;21064;-72
2022/05/16 22:34:25;;;;;;;16.42;7.33;;;;;;;12.52;43.01;99801.52;1730863;82;21029;-71
2022/05/16 22:36:52;;;;;;;25.45;9.03;;;;;;;12.50;42.82;99795.59;1753840;80;21079;-71
2022/05/16 22:39:20;;;;;;;18.77;8.65;;;;;;;12.49;42.53;99798.53;1763949;81;21572;-71
2022/05/16 22:41:47;;;;;;;16.55;7.90;;;;;;;12.48;42.49;99791.51;1747567;81;21104;-71
2022/05/16 22:44:13;;;;;;;10.50;6.47;;;;;;;12.46;42.19;99789.63;1746910;81;20967;-72
2022/05/16 22:46:40;;;;;;;16.00;6.50;;;;;;;12.45;41.74;99788.80;1757739;81;20961;-73
2022/05/16 22:49:08;;;;;;;11.40;7.00;;;;;;;12.41;41.77;99787.70;1750196;81;21023;-72
2022/05/16 22:51:35;;;;;;;11.97;4.95;;;;;;;12.39;42.04;99780.39;1722857;82;20940;-71
2022/05/16 22:54:01;;;;;;;8.25;5.15;;;;;;;12.36;41.96;99788.20;1738645;82;22055;-72
2022/05/16 22:56:27;;;;;;;12.70;5.03;;;;;;;12.31;41.89;99784.93;1737415;81;21014;-72
2022/05/16 22:58:54;;;;;;;9.18;6.10;;;;;;;12.29;41.81;99790.29;1747482;81;20975;-71
2022/05/16 23:03:28;;;;;;;7.70;4.92;;;;;;;12.27;41.66;99781.66;1740210;82;21719;-72
2022/05/16 23:03:49;;;;;;;8.30;5.00;;;;;;;12.26;41.60;99771.94;1758100;81;20911;-72
2022/05/16 23:06:15;;;;;;;10.48;5.10;;;;;;;12.24;41.38;99770.84;1755077;80;21130;-71
2022/05/16 23:08:43;;;;;;;11.25;4.72;;;;;;;12.24;41.00;99771.66;1754166;81;21079;-72
2022/05/16 23:11:09;;;;;;;11.73;5.37;;;;;;;12.27;40.97;99774.39;1742682;80;21062;-71
2022/05/16 23:13:36;;;;;;;9.95;5.25;;;;;;;12.29;40.92;99771.41;1717094;82;21154;-70
2022/05/16 23:16:04;;;;;;;6.33;5.20;;;;;;;12.30;40.74;99771.16;1756993;81;21011;-71
2022/05/16 23:18:31;;;;;;;9.10;5.15;;;;;;;12.29;40.81;99766.02;1744970;80;21139;-72
2022/05/16 23:20:58;;;;;;;8.18;5.37;;;;;;;12.30;40.90;99774.39;1761355;81;21042;-72
2022/05/16 23:23:25;;;;;;;10.53;5.08;;;;;;;12.30;40.71;99771.70;1759529;81;20967;-72
2022/05/16 23:25:52;;;;;;;9.28;6.25;;;;;;;12.30;40.75;99773.05;1747140;80;21490;-72
2022/05/16 23:28:19;;;;;;;12.33;5.75;;;;;;;12.30;40.67;99772.52;1761345;81;21485;-72
2022/05/16 23:30:47;;;;;;;12.13;5.95;;;;;;;12.31;40.93;99766.59;1764431;81;21239;-72
2022/05/16 23:33:13;;;;;;;10.93;5.47;;;;;;;12.31;40.96;99767.94;1744606;80;21147;-71
2022/05/16 23:36:12;;;;;;;10.00;7.65;;;;;;;12.30;40.73;99757.68;1761105;79;20992;-71
2022/05/16 23:38:09;;;;;;;10.28;5.85;;;;;;;12.30;40.76;99757.68;1743752;81;20980;-71
2022/05/16 23:40:38;;;;;;;7.62;5.62;;;;;;;12.31;41.10;99755.80;1765170;81;20996;-71
2022/05/16 23:43:05;;;;;;;14.28;4.87;;;;;;;12.30;41.20;99752.81;1766531;81;21123;-73
2022/05/16 23:45:32;;;;;;;9.73;4.67;;;;;;;12.30;41.32;99753.64;1713610;81;21486;-70
2022/05/16 23:47:58;;;;;;;12.80;5.10;;;;;;;12.30;41.34;99748.24;1763287;81;21001;-71
2022/05/16 23:50:24;;;;;;;9.83;5.30;;;;;;;12.30;41.19;99746.08;1755646;81;21016;-72
2022/05/16 23:52:51;;;;;;;7.55;5.47;;;;;;;12.29;41.10;99746.61;1742427;82;21005;-69
2022/05/16 23:55:18;;;;;;;9.18;6.22;;;;;;;12.30;40.94;99742.03;1756779;81;21184;-71
2022/05/16 23:57:45;;;;;;;11.80;6.75;;;;;;;12.30;40.80;99742.03;1734456;81;21082;-70
